Terminal Aerodrome Forecast
Issued by NWS

Home | Current Version | Previous Version | Text Only | Print | Product List | Glossary On
Versions: 1 2 3 4 5 6 7 8 9 10 11 12 13 14 15 16 17 18 19 20 21 22 23 24
688
FTUS45 KGJT 222337
TAFVEL
TAF
KVEL 222337Z 2300/2324 22010KT P6SM SCT250
     FM230100 32010KT P6SM VCTS BKN100CB
     FM230800 30004KT P6SM BKN200
     FM231700 18004KT P6SM SCT200
     FM232200 25007KT P6SM SCT200
     FM232300 30007KT P6SM SCT200=

USA.gov is the U.S. government's official web portal to all federal, state and local government web resources and services.